sensor_id;sensor_type;location;lat;lon;timestamp;P1;durP1;ratioP1;P2;durP2;ratioP2
58446;SDS011;44240;51.840;7.258;2022-08-04T00:00:21;8.55;;;2.60;;
58446;SDS011;44240;51.840;7.258;2022-08-04T00:02:51;6.07;;;2.20;;
58446;SDS011;44240;51.840;7.258;2022-08-04T00:05:26;10.50;;;2.65;;
58446;SDS011;44240;51.840;7.258;2022-08-04T00:11:23;5.95;;;2.80;;
58446;SDS011;44240;51.840;7.258;2022-08-04T00:13:56;4.47;;;2.30;;
58446;SDS011;44240;51.840;7.258;2022-08-04T00:16:27;6.05;;;2.15;;
58446;SDS011;44240;51.840;7.258;2022-08-04T00:18:56;7.32;;;2.20;;
58446;SDS011;44240;51.840;7.258;2022-08-04T00:21:25;8.73;;;3.15;;
58446;SDS011;44240;51.840;7.258;2022-08-04T00:23:51;6.40;;;2.15;;
58446;SDS011;44240;51.840;7.258;2022-08-04T00:26:19;7.57;;;2.42;;
58446;SDS011;44240;51.840;7.258;2022-08-04T00:28:44;6.55;;;2.22;;
58446;SDS011;44240;51.840;7.258;2022-08-04T00:31:12;8.38;;;2.72;;
58446;SDS011;44240;51.840;7.258;2022-08-04T00:33:39;6.20;;;2.42;;
58446;SDS011;44240;51.840;7.258;2022-08-04T00:36:10;8.52;;;2.20;;
58446;SDS011;44240;51.840;7.258;2022-08-04T00:38:36;7.30;;;2.53;;
58446;SDS011;44240;51.840;7.258;2022-08-04T00:43:35;8.38;;;2.83;;
58446;SDS011;44240;51.840;7.258;2022-08-04T00:46:32;9.60;;;2.17;;
58446;SDS011;44240;51.840;7.258;2022-08-04T00:49:39;8.73;;;2.28;;
58446;SDS011;44240;51.840;7.258;2022-08-04T00:58:11;8.20;;;2.70;;
58446;SDS011;44240;51.840;7.258;2022-08-04T01:06:21;8.23;;;2.30;;
58446;SDS011;44240;51.840;7.258;2022-08-04T01:09:02;8.60;;;2.20;;
58446;SDS011;44240;51.840;7.258;2022-08-04T01:11:52;5.80;;;2.50;;
58446;SDS011;44240;51.840;7.258;2022-08-04T01:16:56;7.63;;;2.58;;
58446;SDS011;44240;51.840;7.258;2022-08-04T01:27:59;9.10;;;2.67;;
58446;SDS011;44240;51.840;7.258;2022-08-04T01:30:31;6.88;;;2.22;;
58446;SDS011;44240;51.840;7.258;2022-08-04T01:33:04;5.10;;;2.20;;
58446;SDS011;44240;51.840;7.258;2022-08-04T01:35:46;9.35;;;3.67;;
58446;SDS011;44240;51.840;7.258;2022-08-04T01:41:08;9.10;;;2.67;;
58446;SDS011;44240;51.840;7.258;2022-08-04T01:43:41;8.45;;;2.58;;
58446;SDS011;44240;51.840;7.258;2022-08-04T01:46:09;7.85;;;2.47;;
58446;SDS011;44240;51.840;7.258;2022-08-04T01:48:37;9.32;;;2.60;;
58446;SDS011;44240;51.840;7.258;2022-08-04T01:51:05;8.43;;;2.50;;
58446;SDS011;44240;51.840;7.258;2022-08-04T01:53:33;7.40;;;2.78;;
58446;SDS011;44240;51.840;7.258;2022-08-04T01:56:00;8.65;;;3.35;;
58446;SDS011;44240;51.840;7.258;2022-08-04T01:58:31;4.25;;;2.40;;
58446;SDS011;44240;51.840;7.258;2022-08-04T02:00:59;9.30;;;2.35;;
58446;SDS011;44240;51.840;7.258;2022-08-04T02:03:37;8.45;;;2.50;;
58446;SDS011;44240;51.840;7.258;2022-08-04T02:08:37;8.75;;;2.78;;
58446;SDS011;44240;51.840;7.258;2022-08-04T02:21:21;6.72;;;3.38;;
58446;SDS011;44240;51.840;7.258;2022-08-04T02:23:50;6.63;;;2.70;;
58446;SDS011;44240;51.840;7.258;2022-08-04T02:26:22;8.60;;;3.40;;
58446;SDS011;44240;51.840;7.258;2022-08-04T02:31:31;5.57;;;2.50;;
58446;SDS011;44240;51.840;7.258;2022-08-04T02:36:46;9.23;;;2.78;;
58446;SDS011;44240;51.840;7.258;2022-08-04T02:39:13;5.22;;;2.47;;
58446;SDS011;44240;51.840;7.258;2022-08-04T02:41:44;8.18;;;2.17;;
58446;SDS011;44240;51.840;7.258;2022-08-04T02:44:11;7.30;;;2.85;;
58446;SDS011;44240;51.840;7.258;2022-08-04T02:46:38;10.05;;;2.70;;
58446;SDS011;44240;51.840;7.258;2022-08-04T02:49:06;10.70;;;3.28;;
58446;SDS011;44240;51.840;7.258;2022-08-04T02:51:34;7.55;;;3.33;;
58446;SDS011;44240;51.840;7.258;2022-08-04T02:54:02;9.63;;;3.00;;
58446;SDS011;44240;51.840;7.258;2022-08-04T02:56:30;8.45;;;4.00;;
58446;SDS011;44240;51.840;7.258;2022-08-04T02:58:58;10.85;;;3.10;;
58446;SDS011;44240;51.840;7.258;2022-08-04T03:01:28;19.65;;;3.63;;
58446;SDS011;44240;51.840;7.258;2022-08-04T03:04:14;4.60;;;2.70;;
58446;SDS011;44240;51.840;7.258;2022-08-04T03:07:09;7.88;;;3.38;;
58446;SDS011;44240;51.840;7.258;2022-08-04T03:21:08;7.82;;;3.22;;
58446;SDS011;44240;51.840;7.258;2022-08-04T03:45:48;7.65;;;3.00;;
58446;SDS011;44240;51.840;7.258;2022-08-04T03:51:17;8.57;;;2.72;;
58446;SDS011;44240;51.840;7.258;2022-08-04T04:00:05;11.73;;;3.45;;
58446;SDS011;44240;51.840;7.258;2022-08-04T04:05:11;9.65;;;3.60;;
58446;SDS011;44240;51.840;7.258;2022-08-04T04:24:01;7.70;;;3.33;;
58446;SDS011;44240;51.840;7.258;2022-08-04T04:27:07;9.55;;;3.63;;
58446;SDS011;44240;51.840;7.258;2022-08-04T04:46:42;7.22;;;3.42;;
58446;SDS011;44240;51.840;7.258;2022-08-04T04:49:13;8.82;;;3.28;;
58446;SDS011;44240;51.840;7.258;2022-08-04T04:54:52;7.13;;;3.20;;
58446;SDS011;44240;51.840;7.258;2022-08-04T04:57:34;11.05;;;3.85;;
58446;SDS011;44240;51.840;7.258;2022-08-04T05:00:05;8.50;;;3.58;;
58446;SDS011;44240;51.840;7.258;2022-08-04T05:07:56;7.22;;;3.05;;
58446;SDS011;44240;51.840;7.258;2022-08-04T05:13:26;4.53;;;3.20;;
58446;SDS011;44240;51.840;7.258;2022-08-04T05:15:55;13.02;;;4.28;;
58446;SDS011;44240;51.840;7.258;2022-08-04T05:18:33;7.35;;;3.38;;
58446;SDS011;44240;51.840;7.258;2022-08-04T05:21:07;7.97;;;3.80;;
58446;SDS011;44240;51.840;7.258;2022-08-04T05:23:44;12.50;;;3.78;;
58446;SDS011;44240;51.840;7.258;2022-08-04T05:26:15;7.65;;;3.95;;
58446;SDS011;44240;51.840;7.258;2022-08-04T05:28:44;11.82;;;3.95;;
58446;SDS011;44240;51.840;7.258;2022-08-04T05:31:28;12.57;;;3.77;;
58446;SDS011;44240;51.840;7.258;2022-08-04T05:34:06;13.25;;;3.47;;
58446;SDS011;44240;51.840;7.258;2022-08-04T05:36:36;8.23;;;3.22;;
58446;SDS011;44240;51.840;7.258;2022-08-04T05:39:06;7.72;;;4.03;;
58446;SDS011;44240;51.840;7.258;2022-08-04T05:41:47;12.52;;;3.95;;
58446;SDS011;44240;51.840;7.258;2022-08-04T05:44:14;9.60;;;3.72;;
58446;SDS011;44240;51.840;7.258;2022-08-04T05:46:42;11.23;;;3.42;;
58446;SDS011;44240;51.840;7.258;2022-08-04T05:49:09;6.50;;;3.55;;
58446;SDS011;44240;51.840;7.258;2022-08-04T05:51:35;9.75;;;3.38;;
58446;SDS011;44240;51.840;7.258;2022-08-04T05:54:01;10.85;;;3.08;;
58446;SDS011;44240;51.840;7.258;2022-08-04T05:56:29;9.43;;;3.65;;
58446;SDS011;44240;51.840;7.258;2022-08-04T05:58:57;12.05;;;4.10;;
58446;SDS011;44240;51.840;7.258;2022-08-04T06:01:24;13.32;;;3.80;;
58446;SDS011;44240;51.840;7.258;2022-08-04T06:03:52;9.45;;;3.28;;
58446;SDS011;44240;51.840;7.258;2022-08-04T06:06:19;13.85;;;4.97;;
58446;SDS011;44240;51.840;7.258;2022-08-04T06:08:46;8.27;;;3.95;;
58446;SDS011;44240;51.840;7.258;2022-08-04T06:11:12;11.30;;;3.15;;
58446;SDS011;44240;51.840;7.258;2022-08-04T06:13:43;8.45;;;3.65;;
58446;SDS011;44240;51.840;7.258;2022-08-04T06:16:33;8.65;;;3.88;;
58446;SDS011;44240;51.840;7.258;2022-08-04T06:19:03;8.40;;;3.60;;
58446;SDS011;44240;51.840;7.258;2022-08-04T06:21:33;14.15;;;4.20;;
58446;SDS011;44240;51.840;7.258;2022-08-04T06:24:00;11.30;;;3.88;;
58446;SDS011;44240;51.840;7.258;2022-08-04T06:26:27;9.05;;;3.75;;
58446;SDS011;44240;51.840;7.258;2022-08-04T06:28:56;5.68;;;2.65;;
58446;SDS011;44240;51.840;7.258;2022-08-04T06:31:24;11.00;;;4.00;;
58446;SDS011;44240;51.840;7.258;2022-08-04T06:34:06;10.90;;;3.47;;
58446;SDS011;44240;51.840;7.258;2022-08-04T06:36:33;4.80;;;3.28;;
58446;SDS011;44240;51.840;7.258;2022-08-04T06:39:05;7.82;;;3.60;;
58446;SDS011;44240;51.840;7.258;2022-08-04T06:41:31;8.13;;;3.45;;
58446;SDS011;44240;51.840;7.258;2022-08-04T06:43:58;6.80;;;3.45;;
58446;SDS011;44240;51.840;7.258;2022-08-04T06:46:26;9.23;;;3.40;;
58446;SDS011;44240;51.840;7.258;2022-08-04T06:48:53;9.48;;;3.55;;
58446;SDS011;44240;51.840;7.258;2022-08-04T06:51:20;8.57;;;3.42;;
58446;SDS011;44240;51.840;7.258;2022-08-04T06:53:47;8.13;;;3.33;;
58446;SDS011;44240;51.840;7.258;2022-08-04T06:56:13;9.68;;;3.05;;
58446;SDS011;44240;51.840;7.258;2022-08-04T06:58:42;7.78;;;3.72;;
58446;SDS011;44240;51.840;7.258;2022-08-04T07:01:09;9.77;;;3.75;;
58446;SDS011;44240;51.840;7.258;2022-08-04T07:03:35;9.15;;;3.45;;
58446;SDS011;44240;51.840;7.258;2022-08-04T07:06:01;7.10;;;3.25;;
58446;SDS011;44240;51.840;7.258;2022-08-04T07:08:27;8.80;;;3.63;;
58446;SDS011;44240;51.840;7.258;2022-08-04T07:10:53;7.22;;;3.00;;
58446;SDS011;44240;51.840;7.258;2022-08-04T07:13:21;10.05;;;3.00;;
58446;SDS011;44240;51.840;7.258;2022-08-04T07:15:47;7.55;;;3.60;;
58446;SDS011;44240;51.840;7.258;2022-08-04T07:18:13;10.20;;;3.58;;
58446;SDS011;44240;51.840;7.258;2022-08-04T07:20:40;6.47;;;3.00;;
58446;SDS011;44240;51.840;7.258;2022-08-04T07:23:07;8.88;;;3.40;;
58446;SDS011;44240;51.840;7.258;2022-08-04T07:25:35;7.75;;;3.13;;
58446;SDS011;44240;51.840;7.258;2022-08-04T07:28:00;5.93;;;3.53;;
58446;SDS011;44240;51.840;7.258;2022-08-04T07:30:26;5.57;;;3.00;;
58446;SDS011;44240;51.840;7.258;2022-08-04T07:32:54;8.85;;;3.50;;
58446;SDS011;44240;51.840;7.258;2022-08-04T07:35:20;5.97;;;3.33;;
58446;SDS011;44240;51.840;7.258;2022-08-04T07:37:47;4.15;;;3.30;;
58446;SDS011;44240;51.840;7.258;2022-08-04T07:40:13;7.63;;;3.33;;
58446;SDS011;44240;51.840;7.258;2022-08-04T07:42:39;8.18;;;3.03;;
58446;SDS011;44240;51.840;7.258;2022-08-04T07:45:05;7.03;;;2.60;;
58446;SDS011;44240;51.840;7.258;2022-08-04T07:47:31;7.57;;;3.35;;
58446;SDS011;44240;51.840;7.258;2022-08-04T07:49:57;7.10;;;3.13;;
58446;SDS011;44240;51.840;7.258;2022-08-04T07:52:24;6.93;;;3.50;;
58446;SDS011;44240;51.840;7.258;2022-08-04T07:54:51;8.25;;;3.70;;
58446;SDS011;44240;51.840;7.258;2022-08-04T07:57:17;5.15;;;2.97;;
58446;SDS011;44240;51.840;7.258;2022-08-04T07:59:44;3.97;;;2.45;;
58446;SDS011;44240;51.840;7.258;2022-08-04T08:02:11;5.65;;;3.13;;
58446;SDS011;44240;51.840;7.258;2022-08-04T08:04:39;12.07;;;3.90;;
58446;SDS011;44240;51.840;7.258;2022-08-04T08:07:06;7.00;;;3.13;;
58446;SDS011;44240;51.840;7.258;2022-08-04T08:09:32;4.40;;;3.03;;
58446;SDS011;44240;51.840;7.258;2022-08-04T08:11:58;8.95;;;2.92;;
58446;SDS011;44240;51.840;7.258;2022-08-04T08:14:25;8.27;;;3.35;;
58446;SDS011;44240;51.840;7.258;2022-08-04T08:16:52;3.45;;;2.72;;
58446;SDS011;44240;51.840;7.258;2022-08-04T08:19:17;4.68;;;3.25;;
58446;SDS011;44240;51.840;7.258;2022-08-04T08:21:46;6.25;;;2.90;;
58446;SDS011;44240;51.840;7.258;2022-08-04T08:24:13;3.80;;;2.60;;
58446;SDS011;44240;51.840;7.258;2022-08-04T08:26:40;7.75;;;3.67;;
58446;SDS011;44240;51.840;7.258;2022-08-04T08:29:06;5.93;;;3.35;;
58446;SDS011;44240;51.840;7.258;2022-08-04T08:31:33;7.85;;;2.72;;
58446;SDS011;44240;51.840;7.258;2022-08-04T08:33:58;5.57;;;3.13;;
58446;SDS011;44240;51.840;7.258;2022-08-04T08:36:28;5.35;;;3.13;;
58446;SDS011;44240;51.840;7.258;2022-08-04T08:41:56;5.47;;;2.83;;
58446;SDS011;44240;51.840;7.258;2022-08-04T08:53:47;5.88;;;2.60;;
58446;SDS011;44240;51.840;7.258;2022-08-04T08:57:18;3.92;;;2.72;;
58446;SDS011;44240;51.840;7.258;2022-08-04T09:11:16;5.20;;;2.83;;
58446;SDS011;44240;51.840;7.258;2022-08-04T09:13:53;4.65;;;3.25;;
58446;SDS011;44240;51.840;7.258;2022-08-04T09:22:15;3.95;;;3.15;;
58446;SDS011;44240;51.840;7.258;2022-08-04T09:27:18;4.85;;;2.97;;
58446;SDS011;44240;51.840;7.258;2022-08-04T09:32:26;4.60;;;2.92;;
58446;SDS011;44240;51.840;7.258;2022-08-04T09:49:02;6.82;;;2.88;;
58446;SDS011;44240;51.840;7.258;2022-08-04T09:51:42;7.40;;;2.70;;
58446;SDS011;44240;51.840;7.258;2022-08-04T09:54:20;6.35;;;3.30;;
58446;SDS011;44240;51.840;7.258;2022-08-04T09:57:03;4.75;;;2.42;;
58446;SDS011;44240;51.840;7.258;2022-08-04T10:00:00;6.85;;;3.83;;
58446;SDS011;44240;51.840;7.258;2022-08-04T10:02:36;10.93;;;3.50;;
58446;SDS011;44240;51.840;7.258;2022-08-04T10:05:06;6.78;;;3.38;;
58446;SDS011;44240;51.840;7.258;2022-08-04T10:27:15;6.80;;;2.63;;
58446;SDS011;44240;51.840;7.258;2022-08-04T10:29:53;4.88;;;2.65;;
58446;SDS011;44240;51.840;7.258;2022-08-04T10:32:39;4.97;;;2.83;;
58446;SDS011;44240;51.840;7.258;2022-08-04T10:35:14;4.15;;;2.30;;
58446;SDS011;44240;51.840;7.258;2022-08-04T10:40:19;5.97;;;2.60;;
58446;SDS011;44240;51.840;7.258;2022-08-04T10:43:02;4.15;;;2.50;;
58446;SDS011;44240;51.840;7.258;2022-08-04T10:45:45;5.00;;;2.33;;
58446;SDS011;44240;51.840;7.258;2022-08-04T10:53:28;6.68;;;2.97;;
58446;SDS011;44240;51.840;7.258;2022-08-04T10:56:03;3.60;;;2.10;;
58446;SDS011;44240;51.840;7.258;2022-08-04T10:58:39;3.50;;;2.13;;
58446;SDS011;44240;51.840;7.258;2022-08-04T11:01:18;4.05;;;2.30;;
58446;SDS011;44240;51.840;7.258;2022-08-04T11:03:51;6.40;;;2.63;;
58446;SDS011;44240;51.840;7.258;2022-08-04T11:06:25;7.38;;;2.90;;
58446;SDS011;44240;51.840;7.258;2022-08-04T11:08:55;4.63;;;2.78;;
58446;SDS011;44240;51.840;7.258;2022-08-04T11:11:30;7.25;;;2.58;;
58446;SDS011;44240;51.840;7.258;2022-08-04T11:16:31;3.63;;;2.92;;
58446;SDS011;44240;51.840;7.258;2022-08-04T11:22:07;5.65;;;2.90;;
58446;SDS011;44240;51.840;7.258;2022-08-04T11:24:38;7.82;;;3.10;;
58446;SDS011;44240;51.840;7.258;2022-08-04T11:27:21;4.47;;;2.72;;
58446;SDS011;44240;51.840;7.258;2022-08-04T11:35:23;6.85;;;2.40;;
58446;SDS011;44240;51.840;7.258;2022-08-04T11:38:00;3.53;;;2.00;;
58446;SDS011;44240;51.840;7.258;2022-08-04T11:40:38;7.45;;;2.53;;
58446;SDS011;44240;51.840;7.258;2022-08-04T11:43:16;3.70;;;2.75;;
58446;SDS011;44240;51.840;7.258;2022-08-04T11:45:53;5.38;;;2.00;;
58446;SDS011;44240;51.840;7.258;2022-08-04T11:48:47;4.53;;;2.05;;
58446;SDS011;44240;51.840;7.258;2022-08-04T11:51:36;20.75;;;2.40;;
58446;SDS011;44240;51.840;7.258;2022-08-04T11:54:03;5.53;;;1.95;;
58446;SDS011;44240;51.840;7.258;2022-08-04T11:56:29;4.53;;;1.90;;
58446;SDS011;44240;51.840;7.258;2022-08-04T11:58:55;4.60;;;2.20;;
58446;SDS011;44240;51.840;7.258;2022-08-04T12:03:58;5.32;;;2.42;;
58446;SDS011;44240;51.840;7.258;2022-08-04T12:06:35;3.85;;;2.20;;
58446;SDS011;44240;51.840;7.258;2022-08-04T12:09:31;7.70;;;2.25;;
58446;SDS011;44240;51.840;7.258;2022-08-04T12:17:28;7.78;;;2.20;;
58446;SDS011;44240;51.840;7.258;2022-08-04T12:20:03;7.18;;;2.10;;
58446;SDS011;44240;51.840;7.258;2022-08-04T12:22:34;5.82;;;2.25;;
58446;SDS011;44240;51.840;7.258;2022-08-04T12:25:05;6.70;;;2.40;;
58446;SDS011;44240;51.840;7.258;2022-08-04T12:27:39;8.93;;;2.58;;
58446;SDS011;44240;51.840;7.258;2022-08-04T12:30:11;6.93;;;2.63;;
58446;SDS011;44240;51.840;7.258;2022-08-04T12:32:40;5.15;;;2.10;;
58446;SDS011;44240;51.840;7.258;2022-08-04T12:35:13;4.68;;;2.63;;
58446;SDS011;44240;51.840;7.258;2022-08-04T12:37:57;8.20;;;2.40;;
58446;SDS011;44240;51.840;7.258;2022-08-04T12:40:35;9.50;;;2.60;;
58446;SDS011;44240;51.840;7.258;2022-08-04T12:43:12;6.63;;;2.60;;
58446;SDS011;44240;51.840;7.258;2022-08-04T12:45:56;5.57;;;2.37;;
58446;SDS011;44240;51.840;7.258;2022-08-04T12:48:29;7.47;;;2.60;;
58446;SDS011;44240;51.840;7.258;2022-08-04T12:50:58;6.43;;;3.13;;
58446;SDS011;44240;51.840;7.258;2022-08-04T12:53:25;8.60;;;3.38;;
58446;SDS011;44240;51.840;7.258;2022-08-04T12:55:56;8.23;;;2.92;;
58446;SDS011;44240;51.840;7.258;2022-08-04T12:58:24;4.72;;;2.80;;
58446;SDS011;44240;51.840;7.258;2022-08-04T13:01:01;5.82;;;2.50;;
58446;SDS011;44240;51.840;7.258;2022-08-04T13:03:35;8.95;;;2.70;;
58446;SDS011;44240;51.840;7.258;2022-08-04T13:06:04;8.48;;;2.70;;
58446;SDS011;44240;51.840;7.258;2022-08-04T13:08:33;7.22;;;2.90;;
58446;SDS011;44240;51.840;7.258;2022-08-04T13:11:02;5.47;;;2.83;;
58446;SDS011;44240;51.840;7.258;2022-08-04T13:13:29;5.78;;;2.80;;
58446;SDS011;44240;51.840;7.258;2022-08-04T13:18:26;6.25;;;2.72;;
58446;SDS011;44240;51.840;7.258;2022-08-04T13:21:09;9.10;;;2.42;;
58446;SDS011;44240;51.840;7.258;2022-08-04T13:23:40;4.38;;;2.30;;
58446;SDS011;44240;51.840;7.258;2022-08-04T13:26:09;9.32;;;2.67;;
58446;SDS011;44240;51.840;7.258;2022-08-04T13:28:40;6.03;;;2.92;;
58446;SDS011;44240;51.840;7.258;2022-08-04T13:31:08;8.30;;;2.88;;
58446;SDS011;44240;51.840;7.258;2022-08-04T13:33:38;4.20;;;2.40;;
58446;SDS011;44240;51.840;7.258;2022-08-04T13:36:07;5.50;;;3.00;;
58446;SDS011;44240;51.840;7.258;2022-08-04T13:38:33;5.43;;;2.88;;
58446;SDS011;44240;51.840;7.258;2022-08-04T13:41:02;5.85;;;2.75;;
58446;SDS011;44240;51.840;7.258;2022-08-04T13:43:43;9.05;;;3.63;;
58446;SDS011;44240;51.840;7.258;2022-08-04T13:46:13;10.18;;;3.10;;
58446;SDS011;44240;51.840;7.258;2022-08-04T13:48:42;7.75;;;2.92;;
58446;SDS011;44240;51.840;7.258;2022-08-04T13:51:09;6.95;;;3.03;;
58446;SDS011;44240;51.840;7.258;2022-08-04T13:53:37;5.53;;;2.85;;
58446;SDS011;44240;51.840;7.258;2022-08-04T13:56:05;4.10;;;2.85;;
58446;SDS011;44240;51.840;7.258;2022-08-04T13:58:33;6.38;;;2.63;;
58446;SDS011;44240;51.840;7.258;2022-08-04T14:01:08;5.75;;;2.92;;
58446;SDS011;44240;51.840;7.258;2022-08-04T14:06:31;12.05;;;3.13;;
58446;SDS011;44240;51.840;7.258;2022-08-04T14:09:00;8.18;;;2.97;;
58446;SDS011;44240;51.840;7.258;2022-08-04T14:11:41;5.05;;;3.22;;
58446;SDS011;44240;51.840;7.258;2022-08-04T14:14:13;3.35;;;2.35;;
58446;SDS011;44240;51.840;7.258;2022-08-04T14:17:00;6.57;;;2.53;;
58446;SDS011;44240;51.840;7.258;2022-08-04T14:24:55;5.65;;;2.63;;
58446;SDS011;44240;51.840;7.258;2022-08-04T14:27:51;4.93;;;2.00;;
58446;SDS011;44240;51.840;7.258;2022-08-04T14:30:19;3.58;;;2.70;;
58446;SDS011;44240;51.840;7.258;2022-08-04T14:33:20;2.92;;;2.33;;
58446;SDS011;44240;51.840;7.258;2022-08-04T14:35:39;7.28;;;2.88;;
58446;SDS011;44240;51.840;7.258;2022-08-04T14:38:05;4.32;;;2.25;;
58446;SDS011;44240;51.840;7.258;2022-08-04T14:40:33;4.20;;;2.10;;
58446;SDS011;44240;51.840;7.258;2022-08-04T14:43:01;2.55;;;1.77;;
58446;SDS011;44240;51.840;7.258;2022-08-04T14:45:28;3.30;;;2.13;;
58446;SDS011;44240;51.840;7.258;2022-08-04T14:47:59;5.22;;;2.20;;
58446;SDS011;44240;51.840;7.258;2022-08-04T14:50:32;4.43;;;2.17;;
58446;SDS011;44240;51.840;7.258;2022-08-04T14:53:18;2.53;;;1.98;;
58446;SDS011;44240;51.840;7.258;2022-08-04T14:55:47;4.25;;;2.25;;
58446;SDS011;44240;51.840;7.258;2022-08-04T14:58:18;3.28;;;2.00;;
58446;SDS011;44240;51.840;7.258;2022-08-04T15:00:46;2.20;;;1.70;;
58446;SDS011;44240;51.840;7.258;2022-08-04T15:03:12;5.90;;;2.03;;
58446;SDS011;44240;51.840;7.258;2022-08-04T15:05:39;4.68;;;2.22;;
58446;SDS011;44240;51.840;7.258;2022-08-04T15:08:06;1.98;;;1.70;;
58446;SDS011;44240;51.840;7.258;2022-08-04T15:10:32;4.60;;;2.35;;
58446;SDS011;44240;51.840;7.258;2022-08-04T15:12:58;4.47;;;2.20;;
58446;SDS011;44240;51.840;7.258;2022-08-04T15:15:26;5.32;;;2.08;;
58446;SDS011;44240;51.840;7.258;2022-08-04T15:17:52;3.85;;;2.10;;
58446;SDS011;44240;51.840;7.258;2022-08-04T15:20:19;4.00;;;2.20;;
58446;SDS011;44240;51.840;7.258;2022-08-04T15:22:45;4.50;;;2.28;;
58446;SDS011;44240;51.840;7.258;2022-08-04T15:25:11;3.72;;;2.20;;
58446;SDS011;44240;51.840;7.258;2022-08-04T15:27:37;6.60;;;2.42;;
58446;SDS011;44240;51.840;7.258;2022-08-04T15:30:07;3.83;;;2.50;;
58446;SDS011;44240;51.840;7.258;2022-08-04T15:32:39;4.95;;;3.10;;
58446;SDS011;44240;51.840;7.258;2022-08-04T15:35:09;4.90;;;2.80;;
58446;SDS011;44240;51.840;7.258;2022-08-04T15:46:21;2.85;;;2.42;;
58446;SDS011;44240;51.840;7.258;2022-08-04T15:49:08;6.18;;;2.72;;
58446;SDS011;44240;51.840;7.258;2022-08-04T15:51:46;7.68;;;2.65;;
58446;SDS011;44240;51.840;7.258;2022-08-04T15:56:44;4.03;;;2.33;;
58446;SDS011;44240;51.840;7.258;2022-08-04T15:59:11;3.22;;;2.53;;
58446;SDS011;44240;51.840;7.258;2022-08-04T16:01:37;12.35;;;2.85;;
58446;SDS011;44240;51.840;7.258;2022-08-04T16:04:21;5.70;;;2.83;;
58446;SDS011;44240;51.840;7.258;2022-08-04T16:06:48;2.95;;;2.30;;
58446;SDS011;44240;51.840;7.258;2022-08-04T16:09:21;6.35;;;2.55;;
58446;SDS011;44240;51.840;7.258;2022-08-04T16:11:50;6.22;;;2.30;;
58446;SDS011;44240;51.840;7.258;2022-08-04T16:14:16;5.47;;;2.45;;
58446;SDS011;44240;51.840;7.258;2022-08-04T16:16:53;3.50;;;2.47;;
58446;SDS011;44240;51.840;7.258;2022-08-04T16:22:30;5.53;;;2.55;;
58446;SDS011;44240;51.840;7.258;2022-08-04T16:25:00;2.72;;;2.17;;
58446;SDS011;44240;51.840;7.258;2022-08-04T16:27:36;4.45;;;2.75;;
58446;SDS011;44240;51.840;7.258;2022-08-04T16:30:03;5.50;;;2.72;;
58446;SDS011;44240;51.840;7.258;2022-08-04T16:32:49;5.50;;;2.50;;
58446;SDS011;44240;51.840;7.258;2022-08-04T16:35:20;5.18;;;2.63;;
58446;SDS011;44240;51.840;7.258;2022-08-04T16:38:09;5.82;;;2.78;;
58446;SDS011;44240;51.840;7.258;2022-08-04T16:40:40;4.47;;;2.22;;
58446;SDS011;44240;51.840;7.258;2022-08-04T16:43:14;5.18;;;2.95;;
58446;SDS011;44240;51.840;7.258;2022-08-04T16:45:48;5.57;;;2.55;;
58446;SDS011;44240;51.840;7.258;2022-08-04T16:48:15;4.25;;;2.47;;
58446;SDS011;44240;51.840;7.258;2022-08-04T16:50:47;4.82;;;2.50;;
58446;SDS011;44240;51.840;7.258;2022-08-04T16:55:44;6.80;;;2.83;;
58446;SDS011;44240;51.840;7.258;2022-08-04T16:58:14;3.55;;;2.08;;
58446;SDS011;44240;51.840;7.258;2022-08-04T17:00:41;6.07;;;2.50;;
58446;SDS011;44240;51.840;7.258;2022-08-04T17:03:07;4.70;;;2.20;;
58446;SDS011;44240;51.840;7.258;2022-08-04T17:05:34;7.63;;;2.92;;
58446;SDS011;44240;51.840;7.258;2022-08-04T17:08:01;7.13;;;2.60;;
58446;SDS011;44240;51.840;7.258;2022-08-04T17:13:01;3.80;;;2.25;;
58446;SDS011;44240;51.840;7.258;2022-08-04T17:15:45;4.43;;;2.47;;
58446;SDS011;44240;51.840;7.258;2022-08-04T17:18:13;4.32;;;2.50;;
58446;SDS011;44240;51.840;7.258;2022-08-04T17:20:41;7.90;;;2.97;;
58446;SDS011;44240;51.840;7.258;2022-08-04T17:28:32;6.55;;;2.90;;
58446;SDS011;44240;51.840;7.258;2022-08-04T17:30:59;4.60;;;2.10;;
58446;SDS011;44240;51.840;7.258;2022-08-04T17:33:25;6.13;;;3.53;;
58446;SDS011;44240;51.840;7.258;2022-08-04T17:35:55;5.63;;;3.20;;
58446;SDS011;44240;51.840;7.258;2022-08-04T17:38:27;5.22;;;3.17;;
58446;SDS011;44240;51.840;7.258;2022-08-04T17:40:58;4.93;;;2.95;;
58446;SDS011;44240;51.840;7.258;2022-08-04T17:43:35;7.30;;;3.13;;
58446;SDS011;44240;51.840;7.258;2022-08-04T17:48:59;6.97;;;3.10;;
58446;SDS011;44240;51.840;7.258;2022-08-04T17:54:00;5.57;;;3.47;;
58446;SDS011;44240;51.840;7.258;2022-08-04T17:56:42;5.38;;;2.80;;
58446;SDS011;44240;51.840;7.258;2022-08-04T18:07:44;5.72;;;2.83;;
58446;SDS011;44240;51.840;7.258;2022-08-04T18:10:04;4.43;;;3.13;;
58446;SDS011;44240;51.840;7.258;2022-08-04T18:12:34;5.90;;;2.80;;
58446;SDS011;44240;51.840;7.258;2022-08-04T18:17:41;4.47;;;2.72;;
58446;SDS011;44240;51.840;7.258;2022-08-04T18:20:11;6.90;;;2.53;;
58446;SDS011;44240;51.840;7.258;2022-08-04T18:22:43;4.88;;;2.30;;
58446;SDS011;44240;51.840;7.258;2022-08-04T18:25:10;4.82;;;2.70;;
58446;SDS011;44240;51.840;7.258;2022-08-04T18:27:49;5.22;;;2.60;;
58446;SDS011;44240;51.840;7.258;2022-08-04T18:30:19;7.18;;;2.90;;
58446;SDS011;44240;51.840;7.258;2022-08-04T18:32:49;4.35;;;2.63;;
58446;SDS011;44240;51.840;7.258;2022-08-04T18:35:18;8.68;;;3.13;;
58446;SDS011;44240;51.840;7.258;2022-08-04T18:37:43;3.33;;;2.55;;
58446;SDS011;44240;51.840;7.258;2022-08-04T18:40:09;5.82;;;3.05;;
58446;SDS011;44240;51.840;7.258;2022-08-04T18:42:37;3.63;;;2.45;;
58446;SDS011;44240;51.840;7.258;2022-08-04T18:45:03;4.10;;;2.92;;
58446;SDS011;44240;51.840;7.258;2022-08-04T18:47:29;4.65;;;2.67;;
58446;SDS011;44240;51.840;7.258;2022-08-04T18:49:56;2.97;;;2.65;;
58446;SDS011;44240;51.840;7.258;2022-08-04T18:52:22;8.88;;;2.85;;
58446;SDS011;44240;51.840;7.258;2022-08-04T18:54:48;5.18;;;2.50;;
58446;SDS011;44240;51.840;7.258;2022-08-04T18:57:17;6.35;;;2.47;;
58446;SDS011;44240;51.840;7.258;2022-08-04T18:59:44;5.40;;;3.10;;
58446;SDS011;44240;51.840;7.258;2022-08-04T19:02:10;5.18;;;3.00;;
58446;SDS011;44240;51.840;7.258;2022-08-04T19:04:35;4.88;;;3.05;;
58446;SDS011;44240;51.840;7.258;2022-08-04T19:07:01;4.47;;;3.30;;
58446;SDS011;44240;51.840;7.258;2022-08-04T19:09:28;6.18;;;2.65;;
58446;SDS011;44240;51.840;7.258;2022-08-04T19:11:53;7.45;;;2.53;;
58446;SDS011;44240;51.840;7.258;2022-08-04T19:14:19;3.20;;;2.30;;
58446;SDS011;44240;51.840;7.258;2022-08-04T19:16:44;4.78;;;3.15;;
58446;SDS011;44240;51.840;7.258;2022-08-04T19:19:12;6.63;;;3.20;;
58446;SDS011;44240;51.840;7.258;2022-08-04T19:21:39;5.47;;;2.72;;
58446;SDS011;44240;51.840;7.258;2022-08-04T19:24:05;6.50;;;2.63;;
58446;SDS011;44240;51.840;7.258;2022-08-04T19:26:31;4.95;;;2.75;;
58446;SDS011;44240;51.840;7.258;2022-08-04T19:28:56;5.15;;;3.17;;
58446;SDS011;44240;51.840;7.258;2022-08-04T19:31:22;4.57;;;2.97;;
58446;SDS011;44240;51.840;7.258;2022-08-04T19:33:48;4.72;;;2.47;;
58446;SDS011;44240;51.840;7.258;2022-08-04T19:36:13;9.52;;;2.72;;
58446;SDS011;44240;51.840;7.258;2022-08-04T19:38:39;5.00;;;2.75;;
58446;SDS011;44240;51.840;7.258;2022-08-04T19:41:05;5.63;;;2.75;;
58446;SDS011;44240;51.840;7.258;2022-08-04T19:43:31;5.28;;;2.97;;
58446;SDS011;44240;51.840;7.258;2022-08-04T19:45:57;8.05;;;2.55;;
58446;SDS011;44240;51.840;7.258;2022-08-04T19:48:23;5.97;;;2.50;;
58446;SDS011;44240;51.840;7.258;2022-08-04T19:50:49;5.30;;;2.95;;
58446;SDS011;44240;51.840;7.258;2022-08-04T19:53:15;3.05;;;2.35;;
58446;SDS011;44240;51.840;7.258;2022-08-04T19:55:41;4.88;;;2.70;;